createdAt,value
2022-08-04T13:22:23.566Z,59.27
2022-08-04T13:23:23.599Z,60.78
2022-08-04T13:26:43.532Z,60.25
2022-08-04T13:26:44.385Z,57.51
2022-08-04T13:27:24.120Z,57.31
2022-08-04T13:28:23.937Z,56.45
2022-08-04T13:29:57.891Z,58.90
2022-08-04T13:30:24.273Z,59.36
2022-08-04T13:30:25.742Z,58.57
2022-08-04T13:31:24.132Z,52.83
2022-08-04T13:32:24.232Z,56.59
2022-08-04T13:33:24.279Z,55.21
2022-08-04T13:34:24.344Z,56.59
2022-08-04T13:35:54.851Z,57.12
2022-08-04T13:36:24.475Z,52.19
2022-08-04T13:37:24.783Z,52.31
2022-08-04T13:38:24.616Z,48.77
2022-08-04T13:39:24.720Z,49.19
2022-08-04T13:40:24.774Z,49.66
2022-08-04T13:41:27.750Z,46.93
2022-08-04T13:42:24.882Z,47.21
2022-08-04T13:44:15.769Z,46.71
2022-08-04T13:44:25.016Z,48.05
2022-08-04T13:45:25.116Z,49.91
2022-08-04T13:46:27.069Z,48.50
2022-08-04T13:47:25.388Z,52.07
2022-08-04T13:48:32.145Z,48.70
2022-08-04T13:49:42.810Z,49.81
2022-08-04T13:50:25.463Z,49.86
2022-08-04T13:51:25.535Z,49.51
2022-08-04T13:52:25.577Z,47.63
2022-08-04T13:53:29.297Z,48.27
2022-08-04T13:54:25.708Z,48.94
2022-08-04T13:55:25.777Z,49.22
2022-08-04T13:56:25.874Z,51.67
2022-08-04T13:57:25.920Z,50.81
2022-08-04T13:58:25.993Z,50.26
2022-08-04T13:59:26.056Z,48.13
2022-08-04T14:00:30.109Z,47.16
2022-08-04T14:01:35.259Z,48.17
2022-08-04T14:02:26.264Z,49.36
2022-08-04T14:03:26.362Z,48.47
2022-08-04T14:04:26.402Z,48.25
2022-08-04T14:05:28.744Z,48.84
2022-08-04T14:06:26.545Z,48.44
2022-08-04T14:07:26.699Z,48.27
2022-08-04T14:08:26.708Z,49.34
2022-08-04T14:09:35.046Z,51.62
2022-08-04T14:10:26.825Z,51.12
2022-08-04T14:12:08.881Z,51.60
2022-08-04T14:12:45.103Z,49.46
2022-08-04T14:13:27.058Z,48.75
2022-08-04T14:14:27.102Z,45.18
2022-08-04T14:15:27.169Z,45.10
2022-08-04T14:16:27.243Z,45.62
2022-08-04T14:17:29.996Z,46.04
2022-08-04T14:18:27.607Z,44.75
2022-08-04T14:19:35.792Z,46.71
2022-08-04T14:20:27.518Z,47.13
2022-08-04T14:21:48.623Z,47.87
2022-08-04T14:22:27.665Z,45.74
2022-08-04T14:35:15.078Z,50.35
2022-08-04T14:36:04.511Z,46.88
2022-08-04T14:37:18.300Z,43.58
2022-08-04T14:38:03.576Z,42.21
2022-08-04T14:39:02.880Z,44.89
2022-08-04T14:40:17.621Z,43.23
2022-08-04T14:41:02.988Z,45.32
2022-08-04T14:42:03.042Z,45.94
2022-08-04T14:43:07.597Z,47.83
2022-08-04T14:44:03.196Z,48.74
2022-08-04T14:45:03.291Z,47.35
2022-08-04T14:46:03.323Z,49.32
2022-08-04T14:47:03.392Z,43.34
2022-08-04T14:48:03.463Z,44.15
2022-08-04T14:49:03.537Z,44.63
2022-08-04T14:50:03.631Z,43.76
2022-08-04T14:51:03.671Z,43.70
2022-08-04T14:52:03.776Z,43.92
2022-08-04T14:53:03.814Z,46.50
2022-08-04T14:54:07.925Z,50.35
2022-08-04T14:55:03.965Z,48.65
2022-08-04T14:56:04.024Z,43.72
2022-08-04T14:57:04.136Z,46.01
2022-08-04T14:58:36.109Z,44.59
2022-08-04T14:59:04.241Z,43.52
2022-08-04T15:00:10.197Z,46.01
2022-08-04T15:01:10.113Z,45.90
2022-08-04T15:02:04.557Z,43.50
2022-08-04T15:03:04.521Z,44.49
2022-08-04T15:04:04.591Z,45.61
2022-08-04T15:05:55.002Z,44.66
2022-08-04T15:06:10.887Z,42.31
2022-08-04T15:07:04.985Z,45.27
2022-08-04T15:08:04.880Z,46.58
2022-08-04T15:09:04.980Z,43.52
2022-08-04T15:10:05.020Z,46.68
2022-08-04T15:11:05.089Z,50.05
2022-08-04T15:12:05.157Z,48.49
2022-08-04T15:13:05.229Z,47.50
2022-08-04T15:16:14.185Z,49.52
2022-08-04T15:20:57.143Z,49.02
2022-08-04T15:21:47.291Z,50.33
2022-08-04T15:22:47.356Z,48.17
2022-08-04T15:23:47.597Z,44.93
2022-08-04T15:36:43.523Z,49.19
2022-08-04T15:37:43.600Z,48.92
2022-08-04T15:38:43.633Z,48.18
2022-08-04T15:39:43.698Z,48.13
2022-08-04T15:40:43.769Z,49.52
2022-08-04T16:35:49.331Z,56.48
2022-08-04T16:36:49.361Z,56.11
2022-08-04T16:37:49.422Z,56.48
2022-08-04T16:38:49.477Z,57.95
2022-08-04T16:39:51.486Z,59.23
2022-08-04T16:40:49.597Z,59.62
2022-08-04T16:41:49.657Z,56.84
2022-08-04T16:42:49.718Z,58.42
2022-08-04T16:43:49.780Z,58.87
2022-08-04T16:44:53.703Z,57.60
2022-08-04T16:45:49.902Z,58.97
2022-08-04T16:47:22.261Z,59.17
2022-08-04T16:47:50.012Z,60.13
2022-08-04T16:48:50.095Z,59.44
2022-08-04T16:49:51.899Z,60.91
2022-08-04T16:50:50.271Z,61.50
2022-08-04T16:51:50.249Z,62.35
2022-08-04T16:52:50.310Z,63.82
2022-08-04T16:54:02.845Z,63.43
2022-08-04T16:54:50.427Z,62.15
2022-08-04T16:55:50.523Z,61.76
2022-08-04T16:56:50.555Z,61.86
2022-08-04T16:57:50.608Z,61.07
2022-08-04T16:58:54.384Z,61.96
2022-08-04T16:59:50.723Z,61.27
2022-08-04T17:00:50.816Z,61.34
2022-08-04T17:01:50.890Z,59.67
2022-08-04T17:02:50.903Z,59.87
2022-08-04T17:03:56.187Z,59.97
2022-08-04T17:05:12.047Z,60.06
2022-08-04T17:05:51.102Z,60.46
2022-08-04T17:06:51.160Z,60.75
2022-08-04T17:08:07.087Z,60.16
2022-08-04T17:08:51.255Z,60.97
2022-08-04T17:09:51.316Z,60.78
2022-08-04T17:10:51.375Z,60.49
2022-08-04T17:11:51.458Z,60.16
2022-08-04T17:12:59.522Z,60.06
2022-08-04T17:14:03.722Z,59.77
2022-08-04T17:14:51.635Z,59.38
2022-08-04T17:15:51.665Z,59.28
2022-08-04T17:16:51.728Z,59.28
2022-08-04T17:18:01.464Z,59.97
2022-08-04T17:18:51.868Z,59.19
2022-08-04T17:19:51.961Z,59.28
2022-08-04T17:21:01.187Z,59.87
2022-08-04T17:21:52.018Z,60.46
2022-08-04T17:22:52.084Z,60.95
2022-08-04T17:24:13.338Z,61.54
2022-08-04T17:25:13.264Z,61.24
2022-08-04T17:25:52.781Z,62.12
2022-08-04T17:26:54.402Z,64.05
2022-08-04T17:28:08.750Z,65.23
2022-08-04T17:28:52.432Z,64.15
2022-08-04T17:29:52.605Z,63.37
2022-08-04T17:30:52.559Z,63.63
2022-08-04T17:31:53.516Z,62.48
2022-08-04T17:32:52.666Z,64.02
2022-08-04T17:33:54.797Z,62.95
2022-08-04T17:34:52.786Z,64.02
2022-08-04T17:35:52.836Z,66.47
2022-08-04T17:36:52.902Z,66.27
2022-08-04T17:37:53.645Z,66.17
2022-08-04T17:38:53.064Z,66.63
2022-08-04T17:39:53.216Z,66.44
2022-08-04T17:40:53.133Z,68.29
2022-08-04T17:41:53.189Z,67.12
2022-08-04T17:42:53.303Z,65.62
2022-08-04T17:44:03.468Z,65.72
2022-08-04T17:44:53.366Z,67.77
2022-08-04T17:45:56.853Z,66.50
2022-08-04T17:46:53.481Z,67.58
2022-08-04T17:47:53.560Z,67.38
2022-08-04T17:48:53.601Z,66.69
2022-08-04T17:49:53.656Z,65.62
2022-08-04T17:50:53.723Z,65.52
2022-08-04T17:52:05.297Z,66.11
2022-08-04T17:52:53.857Z,63.96
2022-08-04T17:54:02.529Z,65.13
2022-08-04T17:54:53.944Z,64.06
2022-08-04T17:55:54.002Z,63.86
2022-08-04T17:56:54.090Z,65.13
2022-08-04T17:57:54.118Z,64.64
2022-08-04T17:58:54.182Z,65.33
2022-08-04T17:59:56.771Z,66.11
2022-08-04T18:01:05.268Z,65.59
2022-08-04T18:01:54.382Z,67.68
2022-08-04T18:02:54.497Z,67.35
2022-08-04T18:03:54.486Z,66.17
2022-08-04T18:05:06.818Z,66.56
2022-08-04T18:06:03.240Z,67.83
2022-08-04T18:06:54.665Z,68.62
2022-08-04T18:08:34.653Z,68.91
2022-08-04T18:08:57.957Z,69.66
2022-08-04T18:10:02.260Z,70.67
2022-08-04T18:10:56.753Z,71.32
2022-08-04T18:11:54.956Z,72.39
2022-08-04T18:12:54.986Z,72.49
2022-08-04T18:13:57.128Z,71.91
2022-08-04T18:14:55.106Z,71.51
2022-08-04T18:15:55.161Z,69.76
2022-08-04T18:16:55.845Z,72.69
2022-08-04T18:18:21.330Z,73.63
2022-08-04T18:18:55.332Z,73.54
2022-08-04T18:19:55.583Z,74.80
2022-08-04T18:20:55.450Z,74.61
2022-08-04T18:22:00.625Z,74.12
2022-08-04T18:22:55.565Z,75.39
2022-08-04T18:23:55.639Z,75.54
2022-08-04T18:24:56.821Z,76.23
2022-08-04T18:25:55.735Z,77.50
2022-08-04T18:26:55.795Z,76.62
2022-08-04T18:27:55.851Z,76.13
2022-08-04T18:28:55.909Z,79.55
2022-08-04T18:30:33.544Z,79.25
2022-08-04T18:30:56.381Z,79.06
2022-08-04T18:31:56.104Z,79.64
2022-08-04T18:33:10.579Z,79.71
2022-08-04T18:33:59.037Z,80.10
2022-08-04T18:34:56.252Z,81.07
2022-08-04T18:36:34.732Z,81.95
2022-08-04T18:36:59.246Z,82.14
2022-08-04T18:38:58.605Z,82.50
2022-08-04T18:40:10.227Z,81.62
2022-08-04T18:40:56.665Z,81.81
2022-08-04T18:42:03.670Z,83.27
2022-08-04T18:42:56.753Z,83.33
2022-08-04T18:43:56.929Z,83.72
2022-08-04T18:44:57.432Z,82.45
2022-08-04T18:45:56.893Z,82.26
2022-08-04T18:46:56.936Z,82.65
2022-08-04T18:47:58.669Z,83.97
2022-08-04T18:48:57.051Z,84.36
2022-08-04T18:51:01.291Z,82.90
2022-08-04T18:51:09.674Z,82.60
2022-08-04T18:51:57.221Z,82.18
2022-08-04T18:52:57.278Z,83.54
2022-08-04T18:53:59.028Z,83.73
2022-08-04T18:54:57.413Z,82.86
2022-08-04T18:55:58.472Z,82.86
2022-08-04T18:57:25.134Z,83.11
2022-08-04T18:58:00.671Z,83.98
2022-08-04T18:58:57.621Z,84.28
2022-08-04T18:59:57.682Z,84.18
2022-08-04T19:01:00.393Z,84.47
2022-08-04T19:02:16.469Z,85.44
2022-08-04T19:02:57.849Z,85.35
2022-08-04T19:03:58.106Z,86.67
2022-08-04T19:04:57.964Z,85.79
2022-08-04T19:05:58.346Z,86.77
2022-08-04T19:06:58.072Z,86.38
2022-08-04T19:08:01.805Z,87.35
2022-08-04T19:08:58.204Z,87.30
2022-08-04T19:09:59.865Z,87.50
2022-08-04T19:10:59.654Z,87.60
2022-08-04T19:11:58.358Z,86.72
2022-08-04T19:12:58.410Z,88.48
2022-08-04T19:13:59.007Z,87.99
2022-08-04T19:15:10.589Z,87.85
2022-08-04T19:15:58.586Z,88.24
2022-08-04T19:16:58.641Z,88.53
2022-08-04T19:18:00.245Z,89.01
2022-08-04T19:18:58.771Z,89.01
2022-08-04T19:19:58.802Z,88.97
2022-08-04T19:20:58.871Z,89.55
2022-08-04T19:22:02.522Z,88.97
2022-08-04T19:24:27.417Z,90.81
2022-08-04T19:24:27.807Z,89.94
2022-08-04T19:24:59.105Z,89.55
2022-08-04T19:26:04.734Z,90.52
2022-08-04T19:26:59.201Z,90.33
2022-08-04T19:27:59.266Z,91.16
2022-08-04T19:28:59.343Z,90.28
2022-08-04T19:29:59.363Z,89.80
2022-08-04T19:30:59.418Z,90.77
2022-08-04T19:31:59.476Z,91.06
2022-08-04T19:32:59.531Z,91.55
2022-08-04T19:34:04.805Z,91.64
2022-08-04T19:34:59.635Z,92.03
2022-08-04T19:35:59.695Z,90.00
2022-08-04T19:36:59.759Z,89.80
2022-08-04T19:38:03.869Z,90.38
2022-08-04T19:38:59.963Z,90.53
2022-08-04T19:39:59.954Z,91.55
2022-08-04T19:40:59.995Z,90.58
2022-08-04T19:43:12.056Z,90.38
2022-08-04T19:44:00.139Z,91.25
2022-08-04T19:45:00.227Z,91.94
2022-08-04T19:46:00.263Z,92.28
2022-08-04T19:47:00.720Z,92.22
2022-08-04T19:48:15.940Z,93.54
2022-08-04T19:49:00.818Z,92.28
2022-08-04T19:50:04.881Z,94.02
2022-08-04T19:51:00.521Z,94.02
2022-08-04T19:52:00.613Z,93.44
2022-08-04T19:53:00.635Z,93.44
2022-08-04T19:54:03.948Z,93.40
2022-08-04T19:55:00.764Z,93.98
2022-08-04T19:56:00.830Z,94.76
2022-08-04T19:57:00.890Z,95.63
2022-08-04T19:58:00.913Z,95.48
2022-08-04T19:59:01.006Z,96.41
2022-08-04T20:00:01.014Z,96.06
2022-08-04T20:01:01.132Z,95.68
2022-08-04T20:02:01.152Z,95.39
2022-08-04T20:03:01.182Z,96.65
2022-08-04T20:04:09.751Z,96.94
2022-08-04T20:05:01.309Z,97.13
2022-08-04T20:06:01.473Z,97.42
2022-08-04T20:07:01.427Z,96.75
2022-08-04T20:08:01.464Z,97.23
2022-08-04T20:09:01.521Z,98.30
2022-08-04T20:10:04.601Z,98.30
2022-08-04T20:11:01.649Z,98.78
2022-08-04T20:12:01.676Z,98.83
2022-08-04T20:13:01.740Z,98.88
2022-08-04T20:14:02.306Z,99.17
2022-08-04T20:15:01.881Z,97.13
2022-08-04T22:02:18.801Z,93.50
2022-08-04T22:02:52.914Z,93.40
2022-08-04T22:03:57.231Z,93.02
2022-08-04T22:04:50.842Z,92.92
2022-08-04T22:05:51.714Z,93.02
2022-08-04T22:06:52.685Z,93.21
2022-08-04T22:07:58.748Z,92.33
2022-08-04T22:08:52.046Z,92.24
2022-08-04T22:10:02.218Z,92.24
2022-08-04T22:10:52.537Z,91.89
2022-08-04T22:12:07.039Z,93.26
2022-08-04T22:12:52.185Z,92.48
2022-08-04T22:14:11.617Z,92.63
2022-08-04T22:14:57.703Z,92.14
2022-08-04T22:16:03.917Z,93.45
2022-08-04T22:16:52.208Z,93.21
2022-08-04T22:17:51.688Z,93.30
2022-08-04T22:18:53.986Z,93.16
2022-08-04T22:19:56.367Z,92.38
2022-08-04T22:20:54.685Z,92.53
2022-08-04T22:21:58.783Z,93.30
2022-08-04T22:23:16.869Z,93.30
2022-08-04T22:24:13.780Z,93.02
2022-08-04T22:24:52.135Z,93.30
2022-08-04T22:25:55.850Z,92.92
2022-08-04T22:26:52.778Z,93.30
2022-08-04T22:27:55.108Z,93.60
2022-08-04T22:28:59.983Z,93.98
2022-08-04T22:29:53.139Z,93.88
2022-08-04T22:31:24.388Z,93.60
2022-08-04T22:31:56.896Z,93.60
